Tadcaster, United Kingdom
Current Conditions -  °F | °C
As of 4:50 PM on Thursday 30 Oct 2014 (Local Time) from EGXU Reporting Station
Haze Haze  
Wind Chill: 61°   Ceiling: 4500
Heat Index: 61°   Visibility: 5mi
Dew Point: 57°   Wind: 7mph
Humidity: 88%   Direction: 170°S
Pressure: 29.97"   Gusts: NA
Location:  53.88°N, 1.26°W
Report Text: EGXU 301650Z 17006KT 8000 HZ SCT025 BKN045 16/14 Q1015 BLU NOSIG
Loading
Personal Weather Stations






























Interactive Weather Map
Tropical Storm Tracking
New forecast layout! Learn more

10-Day Weather Forecast

Advertisements
Track Severe Weather on mobile